sensor_id;sensor_type;location;lat;lon;timestamp;temperature;humidity
40816;DHT22;26535;48.788;9.214;2023-03-26T00:00:53;8.00;99.90
40816;DHT22;26535;48.788;9.214;2023-03-26T00:03:21;7.90;99.90
40816;DHT22;26535;48.788;9.214;2023-03-26T00:05:47;7.90;99.90
40816;DHT22;26535;48.788;9.214;2023-03-26T00:08:14;7.90;99.90
40816;DHT22;26535;48.788;9.214;2023-03-26T00:10:41;7.90;99.90
40816;DHT22;26535;48.788;9.214;2023-03-26T00:13:08;7.80;99.90
40816;DHT22;26535;48.788;9.214;2023-03-26T00:15:35;7.80;99.90
40816;DHT22;26535;48.788;9.214;2023-03-26T00:18:01;7.80;99.90
40816;DHT22;26535;48.788;9.214;2023-03-26T00:20:29;7.80;99.90
40816;DHT22;26535;48.788;9.214;2023-03-26T00:22:57;7.80;99.90
40816;DHT22;26535;48.788;9.214;2023-03-26T00:25:26;7.90;99.90
40816;DHT22;26535;48.788;9.214;2023-03-26T00:27:52;7.90;99.90
40816;DHT22;26535;48.788;9.214;2023-03-26T00:30:18;7.90;99.90
40816;DHT22;26535;48.788;9.214;2023-03-26T00:32:44;7.90;99.90
40816;DHT22;26535;48.788;9.214;2023-03-26T00:35:11;8.00;99.90
40816;DHT22;26535;48.788;9.214;2023-03-26T00:37:37;7.90;99.90
40816;DHT22;26535;48.788;9.214;2023-03-26T00:40:07;7.90;99.90
40816;DHT22;26535;48.788;9.214;2023-03-26T00:42:35;7.80;99.90
40816;DHT22;26535;48.788;9.214;2023-03-26T00:45:04;7.80;99.90
40816;DHT22;26535;48.788;9.214;2023-03-26T00:47:29;7.80;99.90
40816;DHT22;26535;48.788;9.214;2023-03-26T00:49:56;7.70;99.90
40816;DHT22;26535;48.788;9.214;2023-03-26T00:52:22;7.80;99.90
40816;DHT22;26535;48.788;9.214;2023-03-26T00:54:50;7.80;99.90
40816;DHT22;26535;48.788;9.214;2023-03-26T00:57:16;7.80;99.90
40816;DHT22;26535;48.788;9.214;2023-03-26T00:59:42;7.90;99.90
40816;DHT22;26535;48.788;9.214;2023-03-26T05:03:04;8.40;99.90
40816;DHT22;26535;48.788;9.214;2023-03-26T05:05:31;8.40;99.90
40816;DHT22;26535;48.788;9.214;2023-03-26T05:07:58;8.30;99.90
40816;DHT22;26535;48.788;9.214;2023-03-26T05:10:24;8.30;99.90
40816;DHT22;26535;48.788;9.214;2023-03-26T05:12:55;8.30;99.90
40816;DHT22;26535;48.788;9.214;2023-03-26T05:15:25;8.30;99.90
40816;DHT22;26535;48.788;9.214;2023-03-26T05:18:07;8.20;99.90
40816;DHT22;26535;48.788;9.214;2023-03-26T05:20:38;8.20;99.90
40816;DHT22;26535;48.788;9.214;2023-03-26T05:23:06;8.20;99.90
40816;DHT22;26535;48.788;9.214;2023-03-26T05:25:35;8.20;99.90
40816;DHT22;26535;48.788;9.214;2023-03-26T05:28:02;8.20;99.90
40816;DHT22;26535;48.788;9.214;2023-03-26T05:30:38;8.20;99.90
40816;DHT22;26535;48.788;9.214;2023-03-26T05:33:04;8.20;99.90
40816;DHT22;26535;48.788;9.214;2023-03-26T05:35:41;8.30;99.90
40816;DHT22;26535;48.788;9.214;2023-03-26T05:38:08;8.30;99.90
40816;DHT22;26535;48.788;9.214;2023-03-26T05:40:34;8.40;99.90
40816;DHT22;26535;48.788;9.214;2023-03-26T05:43:02;8.40;99.90
40816;DHT22;26535;48.788;9.214;2023-03-26T05:45:37;8.40;99.90
40816;DHT22;26535;48.788;9.214;2023-03-26T05:48:29;8.50;99.90
40816;DHT22;26535;48.788;9.214;2023-03-26T05:50:56;8.50;99.90
40816;DHT22;26535;48.788;9.214;2023-03-26T05:53:24;8.60;99.90
40816;DHT22;26535;48.788;9.214;2023-03-26T05:56:09;8.50;99.90
40816;DHT22;26535;48.788;9.214;2023-03-26T05:58:55;8.60;99.90
40816;DHT22;26535;48.788;9.214;2023-03-26T06:01:44;8.70;99.90
40816;DHT22;26535;48.788;9.214;2023-03-26T06:04:18;8.80;99.90
40816;DHT22;26535;48.788;9.214;2023-03-26T06:07:17;8.90;99.90
40816;DHT22;26535;48.788;9.214;2023-03-26T06:09:49;9.10;99.90
40816;DHT22;26535;48.788;9.214;2023-03-26T06:12:15;9.20;99.90
40816;DHT22;26535;48.788;9.214;2023-03-26T06:14:42;9.20;99.90
40816;DHT22;26535;48.788;9.214;2023-03-26T06:17:15;9.20;99.90
40816;DHT22;26535;48.788;9.214;2023-03-26T06:20:01;9.20;99.90
40816;DHT22;26535;48.788;9.214;2023-03-26T06:22:35;9.10;99.90
40816;DHT22;26535;48.788;9.214;2023-03-26T06:25:26;9.00;99.90
40816;DHT22;26535;48.788;9.214;2023-03-26T06:28:18;8.90;99.90
40816;DHT22;26535;48.788;9.214;2023-03-26T06:30:58;8.80;99.90
40816;DHT22;26535;48.788;9.214;2023-03-26T06:33:31;8.70;99.90
40816;DHT22;26535;48.788;9.214;2023-03-26T06:35:58;8.70;99.90
40816;DHT22;26535;48.788;9.214;2023-03-26T06:38:24;8.70;99.90
40816;DHT22;26535;48.788;9.214;2023-03-26T06:40:50;8.80;99.90
40816;DHT22;26535;48.788;9.214;2023-03-26T06:43:25;8.80;99.90
40816;DHT22;26535;48.788;9.214;2023-03-26T06:46:10;8.90;99.90
40816;DHT22;26535;48.788;9.214;2023-03-26T06:48:36;9.00;99.90
40816;DHT22;26535;48.788;9.214;2023-03-26T06:51:21;9.00;99.90
40816;DHT22;26535;48.788;9.214;2023-03-26T06:54:05;9.10;99.90
40816;DHT22;26535;48.788;9.214;2023-03-26T06:56:49;9.10;99.90
40816;DHT22;26535;48.788;9.214;2023-03-26T06:59:33;9.20;99.90
40816;DHT22;26535;48.788;9.214;2023-03-26T07:02:18;9.20;99.90
40816;DHT22;26535;48.788;9.214;2023-03-26T07:05:02;9.20;99.90
40816;DHT22;26535;48.788;9.214;2023-03-26T07:07:46;9.20;99.90
40816;DHT22;26535;48.788;9.214;2023-03-26T07:10:21;9.20;99.90
40816;DHT22;26535;48.788;9.214;2023-03-26T07:13:06;9.20;99.90
40816;DHT22;26535;48.788;9.214;2023-03-26T07:16:06;9.20;99.90
40816;DHT22;26535;48.788;9.214;2023-03-26T07:18:49;9.20;99.90
40816;DHT22;26535;48.788;9.214;2023-03-26T07:21:19;9.30;99.90
40816;DHT22;26535;48.788;9.214;2023-03-26T07:23:46;9.40;99.90
40816;DHT22;26535;48.788;9.214;2023-03-26T07:26:29;9.30;99.90
40816;DHT22;26535;48.788;9.214;2023-03-26T07:29:36;9.30;99.90
40816;DHT22;26535;48.788;9.214;2023-03-26T07:32:27;9.10;99.90
40816;DHT22;26535;48.788;9.214;2023-03-26T07:38:46;8.90;99.90
40816;DHT22;26535;48.788;9.214;2023-03-26T07:45:10;8.80;99.90
40816;DHT22;26535;48.788;9.214;2023-03-26T07:48:01;8.70;99.90
40816;DHT22;26535;48.788;9.214;2023-03-26T07:50:47;8.70;99.90
40816;DHT22;26535;48.788;9.214;2023-03-26T07:53:29;8.70;99.90
40816;DHT22;26535;48.788;9.214;2023-03-26T07:56:13;8.80;99.90
40816;DHT22;26535;48.788;9.214;2023-03-26T08:02:02;8.80;99.90
40816;DHT22;26535;48.788;9.214;2023-03-26T08:05:08;8.80;99.90
40816;DHT22;26535;48.788;9.214;2023-03-26T08:08:30;8.80;99.90
40816;DHT22;26535;48.788;9.214;2023-03-26T08:19:47;8.70;99.90
40816;DHT22;26535;48.788;9.214;2023-03-26T08:22:45;8.70;99.90
40816;DHT22;26535;48.788;9.214;2023-03-26T08:25:28;8.60;99.90
40816;DHT22;26535;48.788;9.214;2023-03-26T08:30:57;8.60;99.90
40816;DHT22;26535;48.788;9.214;2023-03-26T08:33:27;8.70;99.90
40816;DHT22;26535;48.788;9.214;2023-03-26T08:35:53;8.70;99.90
40816;DHT22;26535;48.788;9.214;2023-03-26T08:38:20;8.70;99.90
40816;DHT22;26535;48.788;9.214;2023-03-26T08:46:54;8.70;99.90
40816;DHT22;26535;48.788;9.214;2023-03-26T08:49:57;8.70;99.90
40816;DHT22;26535;48.788;9.214;2023-03-26T09:02:07;9.20;99.90
40816;DHT22;26535;48.788;9.214;2023-03-26T09:13:27;10.00;99.90
40816;DHT22;26535;48.788;9.214;2023-03-26T09:25:01;11.00;99.90
40816;DHT22;26535;48.788;9.214;2023-03-26T09:28:06;10.90;99.90
40816;DHT22;26535;48.788;9.214;2023-03-26T09:52:02;13.20;99.90
40816;DHT22;26535;48.788;9.214;2023-03-26T09:57:39;13.90;99.90
40816;DHT22;26535;48.788;9.214;2023-03-26T10:00:24;14.20;99.70
40816;DHT22;26535;48.788;9.214;2023-03-26T10:03:19;14.10;99.90
40816;DHT22;26535;48.788;9.214;2023-03-26T10:09:01;14.20;99.00
40816;DHT22;26535;48.788;9.214;2023-03-26T10:14:28;14.50;97.70
40816;DHT22;26535;48.788;9.214;2023-03-26T10:28:46;14.10;97.20
40816;DHT22;26535;48.788;9.214;2023-03-26T10:31:38;13.90;96.60
40816;DHT22;26535;48.788;9.214;2023-03-26T10:34:30;13.50;97.00
40816;DHT22;26535;48.788;9.214;2023-03-26T10:37:12;13.20;97.40
40816;DHT22;26535;48.788;9.214;2023-03-26T10:40:04;13.10;97.80
40816;DHT22;26535;48.788;9.214;2023-03-26T10:42:41;13.20;98.10
40816;DHT22;26535;48.788;9.214;2023-03-26T10:48:34;13.30;96.60
40816;DHT22;26535;48.788;9.214;2023-03-26T10:51:32;13.40;94.00
40816;DHT22;26535;48.788;9.214;2023-03-26T10:56:45;14.00;91.80
40816;DHT22;26535;48.788;9.214;2023-03-26T10:59:13;14.30;90.50
40816;DHT22;26535;48.788;9.214;2023-03-26T11:04:19;14.50;89.20
40816;DHT22;26535;48.788;9.214;2023-03-26T11:12:30;15.70;84.00
40816;DHT22;26535;48.788;9.214;2023-03-26T11:21:06;16.40;79.90
40816;DHT22;26535;48.788;9.214;2023-03-26T11:24:07;16.80;78.70
40816;DHT22;26535;48.788;9.214;2023-03-26T11:29:38;17.60;75.20
40816;DHT22;26535;48.788;9.214;2023-03-26T11:32:11;17.50;74.60
40816;DHT22;26535;48.788;9.214;2023-03-26T11:35:05;18.00;74.20
40816;DHT22;26535;48.788;9.214;2023-03-26T11:37:43;18.20;73.40
40816;DHT22;26535;48.788;9.214;2023-03-26T11:40:15;18.50;73.30
40816;DHT22;26535;48.788;9.214;2023-03-26T11:42:46;19.70;71.10
40816;DHT22;26535;48.788;9.214;2023-03-26T11:45:20;20.60;70.40
40816;DHT22;26535;48.788;9.214;2023-03-26T11:47:53;20.30;70.00
40816;DHT22;26535;48.788;9.214;2023-03-26T11:50:25;21.00;69.80
40816;DHT22;26535;48.788;9.214;2023-03-26T11:53:09;22.00;65.70
40816;DHT22;26535;48.788;9.214;2023-03-26T11:56:02;22.50;64.90
40816;DHT22;26535;48.788;9.214;2023-03-26T11:58:49;22.00;63.90
40816;DHT22;26535;48.788;9.214;2023-03-26T12:01:41;21.60;62.60
40816;DHT22;26535;48.788;9.214;2023-03-26T12:04:13;21.20;63.60
40816;DHT22;26535;48.788;9.214;2023-03-26T12:06:57;21.40;62.40
40816;DHT22;26535;48.788;9.214;2023-03-26T12:09:24;20.80;63.00
40816;DHT22;26535;48.788;9.214;2023-03-26T12:11:59;20.70;62.00
40816;DHT22;26535;48.788;9.214;2023-03-26T12:14:28;20.30;62.20
40816;DHT22;26535;48.788;9.214;2023-03-26T12:17:11;20.80;62.30
40816;DHT22;26535;48.788;9.214;2023-03-26T12:19:42;21.20;60.80
40816;DHT22;26535;48.788;9.214;2023-03-26T12:22:33;20.30;68.00
40816;DHT22;26535;48.788;9.214;2023-03-26T12:27:56;17.50;76.60
40816;DHT22;26535;48.788;9.214;2023-03-26T12:30:28;17.50;78.80
40816;DHT22;26535;48.788;9.214;2023-03-26T12:33:06;18.60;76.30
40816;DHT22;26535;48.788;9.214;2023-03-26T12:35:34;20.10;71.90
40816;DHT22;26535;48.788;9.214;2023-03-26T12:38:21;20.20;71.50
40816;DHT22;26535;48.788;9.214;2023-03-26T12:40:48;20.50;69.70
40816;DHT22;26535;48.788;9.214;2023-03-26T12:43:21;19.70;71.50
40816;DHT22;26535;48.788;9.214;2023-03-26T12:45:52;18.80;72.30
40816;DHT22;26535;48.788;9.214;2023-03-26T12:48:18;18.20;74.40
40816;DHT22;26535;48.788;9.214;2023-03-26T12:56:37;15.80;85.00
40816;DHT22;26535;48.788;9.214;2023-03-26T13:10:25;20.80;73.90
40816;DHT22;26535;48.788;9.214;2023-03-26T13:15:52;23.30;67.80
40816;DHT22;26535;48.788;9.214;2023-03-26T13:18:54;23.90;65.70
40816;DHT22;26535;48.788;9.214;2023-03-26T13:38:27;19.60;70.10
40816;DHT22;26535;48.788;9.214;2023-03-26T13:41:06;19.60;69.70
40816;DHT22;26535;48.788;9.214;2023-03-26T13:43:35;19.30;70.00
40816;DHT22;26535;48.788;9.214;2023-03-26T13:48:35;18.30;70.30
40816;DHT22;26535;48.788;9.214;2023-03-26T13:51:20;18.00;72.50
40816;DHT22;26535;48.788;9.214;2023-03-26T13:53:59;17.90;73.90
40816;DHT22;26535;48.788;9.214;2023-03-26T13:56:32;17.80;72.40
40816;DHT22;26535;48.788;9.214;2023-03-26T13:59:13;17.60;73.20
40816;DHT22;26535;48.788;9.214;2023-03-26T14:01:48;17.50;75.00
40816;DHT22;26535;48.788;9.214;2023-03-26T14:04:29;17.40;74.50
40816;DHT22;26535;48.788;9.214;2023-03-26T14:07:07;17.50;74.40
40816;DHT22;26535;48.788;9.214;2023-03-26T14:15:14;17.00;74.50
40816;DHT22;26535;48.788;9.214;2023-03-26T14:25:38;16.10;75.90
40816;DHT22;26535;48.788;9.214;2023-03-26T14:31:20;15.40;77.30
40816;DHT22;26535;48.788;9.214;2023-03-26T14:45:32;11.70;92.20
40816;DHT22;26535;48.788;9.214;2023-03-26T14:47:54;10.70;96.60
40816;DHT22;26535;48.788;9.214;2023-03-26T14:52:58;9.40;99.90
40816;DHT22;26535;48.788;9.214;2023-03-26T14:58:43;9.10;99.90
40816;DHT22;26535;48.788;9.214;2023-03-26T15:07:24;9.30;99.90
40816;DHT22;26535;48.788;9.214;2023-03-26T15:10:24;9.50;99.90
40816;DHT22;26535;48.788;9.214;2023-03-26T15:24:11;9.90;99.90
40816;DHT22;26535;48.788;9.214;2023-03-26T15:35:18;9.70;99.90
40816;DHT22;26535;48.788;9.214;2023-03-26T15:38:14;9.60;99.90
40816;DHT22;26535;48.788;9.214;2023-03-26T15:49:33;9.00;99.90
40816;DHT22;26535;48.788;9.214;2023-03-26T15:52:15;8.90;99.90
40816;DHT22;26535;48.788;9.214;2023-03-26T15:57:42;8.70;99.90
40816;DHT22;26535;48.788;9.214;2023-03-26T16:00:25;8.60;99.90
40816;DHT22;26535;48.788;9.214;2023-03-26T16:03:32;8.60;99.90
40816;DHT22;26535;48.788;9.214;2023-03-26T16:17:12;8.80;99.90
40816;DHT22;26535;48.788;9.214;2023-03-26T16:22:44;9.20;99.90
40816;DHT22;26535;48.788;9.214;2023-03-26T16:25:28;9.50;99.90
40816;DHT22;26535;48.788;9.214;2023-03-26T16:31:16;9.60;99.90
40816;DHT22;26535;48.788;9.214;2023-03-26T16:33:54;9.50;99.90
40816;DHT22;26535;48.788;9.214;2023-03-26T16:36:36;9.30;99.90
40816;DHT22;26535;48.788;9.214;2023-03-26T16:46:51;8.90;99.90
40816;DHT22;26535;48.788;9.214;2023-03-26T16:52:22;8.80;99.90
40816;DHT22;26535;48.788;9.214;2023-03-26T16:55:19;8.80;99.90
40816;DHT22;26535;48.788;9.214;2023-03-26T16:58:03;8.70;99.90
40816;DHT22;26535;48.788;9.214;2023-03-26T17:03:40;8.60;99.90
40816;DHT22;26535;48.788;9.214;2023-03-26T17:06:24;8.50;99.90
40816;DHT22;26535;48.788;9.214;2023-03-26T17:22:22;8.50;99.90
40816;DHT22;26535;48.788;9.214;2023-03-26T17:27:49;8.40;99.90
40816;DHT22;26535;48.788;9.214;2023-03-26T17:35:43;8.40;99.90
40816;DHT22;26535;48.788;9.214;2023-03-26T17:40:58;8.30;99.90
40816;DHT22;26535;48.788;9.214;2023-03-26T17:43:47;8.30;99.90
40816;DHT22;26535;48.788;9.214;2023-03-26T17:54:25;8.30;99.90
40816;DHT22;26535;48.788;9.214;2023-03-26T17:56:54;8.30;99.90
40816;DHT22;26535;48.788;9.214;2023-03-26T17:59:23;8.20;99.90
40816;DHT22;26535;48.788;9.214;2023-03-26T18:01:54;8.20;99.90
40816;DHT22;26535;48.788;9.214;2023-03-26T18:04:37;8.10;99.90
40816;DHT22;26535;48.788;9.214;2023-03-26T18:07:11;8.00;99.90
40816;DHT22;26535;48.788;9.214;2023-03-26T18:15:41;8.00;99.90
40816;DHT22;26535;48.788;9.214;2023-03-26T18:18:17;8.00;99.90
40816;DHT22;26535;48.788;9.214;2023-03-26T18:20:48;7.90;99.90
40816;DHT22;26535;48.788;9.214;2023-03-26T18:23:35;7.90;99.90
40816;DHT22;26535;48.788;9.214;2023-03-26T18:28:44;7.90;99.90
40816;DHT22;26535;48.788;9.214;2023-03-26T18:31:24;7.90;99.90
40816;DHT22;26535;48.788;9.214;2023-03-26T18:33:55;7.90;99.90
40816;DHT22;26535;48.788;9.214;2023-03-26T18:36:25;7.90;99.90
40816;DHT22;26535;48.788;9.214;2023-03-26T18:38:57;7.90;99.90
40816;DHT22;26535;48.788;9.214;2023-03-26T18:41:30;7.90;99.90
40816;DHT22;26535;48.788;9.214;2023-03-26T18:44:02;7.90;99.90
40816;DHT22;26535;48.788;9.214;2023-03-26T18:46:28;7.80;99.90
40816;DHT22;26535;48.788;9.214;2023-03-26T18:48:54;7.80;99.90
40816;DHT22;26535;48.788;9.214;2023-03-26T18:51:21;7.80;99.90
40816;DHT22;26535;48.788;9.214;2023-03-26T18:53:56;7.70;99.90
40816;DHT22;26535;48.788;9.214;2023-03-26T18:56:38;7.70;99.90
40816;DHT22;26535;48.788;9.214;2023-03-26T18:59:06;7.60;99.90
40816;DHT22;26535;48.788;9.214;2023-03-26T19:01:42;7.60;99.90
40816;DHT22;26535;48.788;9.214;2023-03-26T19:04:11;7.50;99.90
40816;DHT22;26535;48.788;9.214;2023-03-26T19:06:38;7.50;99.90
40816;DHT22;26535;48.788;9.214;2023-03-26T19:09:07;7.60;99.90
40816;DHT22;26535;48.788;9.214;2023-03-26T19:11:41;7.60;99.90
40816;DHT22;26535;48.788;9.214;2023-03-26T19:14:17;7.60;99.90
40816;DHT22;26535;48.788;9.214;2023-03-26T19:16:52;7.60;99.90
40816;DHT22;26535;48.788;9.214;2023-03-26T19:19:24;7.70;99.90
40816;DHT22;26535;48.788;9.214;2023-03-26T19:21:51;7.70;99.90
40816;DHT22;26535;48.788;9.214;2023-03-26T19:24:18;7.70;99.90
40816;DHT22;26535;48.788;9.214;2023-03-26T19:26:46;7.70;99.90
40816;DHT22;26535;48.788;9.214;2023-03-26T19:29:14;7.70;99.90
40816;DHT22;26535;48.788;9.214;2023-03-26T19:31:41;7.70;99.90
40816;DHT22;26535;48.788;9.214;2023-03-26T19:34:17;7.80;99.90
40816;DHT22;26535;48.788;9.214;2023-03-26T19:36:58;7.80;99.90
40816;DHT22;26535;48.788;9.214;2023-03-26T19:42:24;7.80;99.90
40816;DHT22;26535;48.788;9.214;2023-03-26T19:44:51;7.70;99.90
40816;DHT22;26535;48.788;9.214;2023-03-26T19:47:24;7.70;99.90
40816;DHT22;26535;48.788;9.214;2023-03-26T19:49:56;7.60;99.90
40816;DHT22;26535;48.788;9.214;2023-03-26T19:52:36;7.60;99.90
40816;DHT22;26535;48.788;9.214;2023-03-26T19:57:37;7.40;99.90
40816;DHT22;26535;48.788;9.214;2023-03-26T20:00:04;7.30;99.90
40816;DHT22;26535;48.788;9.214;2023-03-26T20:02:40;7.30;99.90
40816;DHT22;26535;48.788;9.214;2023-03-26T20:05:21;7.30;99.90
40816;DHT22;26535;48.788;9.214;2023-03-26T20:07:48;7.30;99.90
40816;DHT22;26535;48.788;9.214;2023-03-26T20:10:15;7.30;99.90
40816;DHT22;26535;48.788;9.214;2023-03-26T20:12:41;7.30;99.90
40816;DHT22;26535;48.788;9.214;2023-03-26T20:15:24;7.20;99.90
40816;DHT22;26535;48.788;9.214;2023-03-26T20:17:50;7.20;99.90
40816;DHT22;26535;48.788;9.214;2023-03-26T20:20:24;7.20;99.90
40816;DHT22;26535;48.788;9.214;2023-03-26T20:22:50;7.20;99.90
40816;DHT22;26535;48.788;9.214;2023-03-26T20:25:25;7.20;99.90
40816;DHT22;26535;48.788;9.214;2023-03-26T20:27:51;7.20;99.90
40816;DHT22;26535;48.788;9.214;2023-03-26T20:30:20;7.20;99.90
40816;DHT22;26535;48.788;9.214;2023-03-26T20:32:47;7.20;99.90
40816;DHT22;26535;48.788;9.214;2023-03-26T20:35:20;7.20;99.90
40816;DHT22;26535;48.788;9.214;2023-03-26T20:37:47;7.20;99.90
40816;DHT22;26535;48.788;9.214;2023-03-26T20:40:13;7.10;99.90
40816;DHT22;26535;48.788;9.214;2023-03-26T20:42:42;7.10;99.90
40816;DHT22;26535;48.788;9.214;2023-03-26T20:45:21;7.00;99.90
40816;DHT22;26535;48.788;9.214;2023-03-26T20:47:49;7.00;99.90
40816;DHT22;26535;48.788;9.214;2023-03-26T20:50:19;7.00;99.90
40816;DHT22;26535;48.788;9.214;2023-03-26T20:52:46;6.90;99.90
40816;DHT22;26535;48.788;9.214;2023-03-26T20:55:14;7.00;99.90
40816;DHT22;26535;48.788;9.214;2023-03-26T20:57:40;6.90;99.90
40816;DHT22;26535;48.788;9.214;2023-03-26T21:00:09;6.90;99.90
40816;DHT22;26535;48.788;9.214;2023-03-26T21:02:53;6.80;99.90
40816;DHT22;26535;48.788;9.214;2023-03-26T21:05:23;6.80;99.90
40816;DHT22;26535;48.788;9.214;2023-03-26T21:10:21;6.80;99.90
40816;DHT22;26535;48.788;9.214;2023-03-26T21:12:56;6.80;99.90
40816;DHT22;26535;48.788;9.214;2023-03-26T21:15:23;6.80;99.90
40816;DHT22;26535;48.788;9.214;2023-03-26T21:17:49;6.80;99.90
40816;DHT22;26535;48.788;9.214;2023-03-26T21:20:17;6.90;99.90
40816;DHT22;26535;48.788;9.214;2023-03-26T21:25:37;6.90;99.90
40816;DHT22;26535;48.788;9.214;2023-03-26T21:28:31;7.00;99.90
40816;DHT22;26535;48.788;9.214;2023-03-26T21:30:58;7.00;99.90
40816;DHT22;26535;48.788;9.214;2023-03-26T21:33:24;7.00;99.90
40816;DHT22;26535;48.788;9.214;2023-03-26T21:35:52;7.10;99.90
40816;DHT22;26535;48.788;9.214;2023-03-26T21:38:21;7.10;99.90
40816;DHT22;26535;48.788;9.214;2023-03-26T21:40:52;7.10;99.90
40816;DHT22;26535;48.788;9.214;2023-03-26T21:43:19;7.10;99.90
40816;DHT22;26535;48.788;9.214;2023-03-26T21:45:48;7.10;99.90
40816;DHT22;26535;48.788;9.214;2023-03-26T21:48:18;7.10;99.90
40816;DHT22;26535;48.788;9.214;2023-03-26T21:50:44;7.10;99.90
40816;DHT22;26535;48.788;9.214;2023-03-26T21:53:12;7.00;99.90
40816;DHT22;26535;48.788;9.214;2023-03-26T21:55:50;7.00;99.90
40816;DHT22;26535;48.788;9.214;2023-03-26T22:00:53;6.90;99.90
40816;DHT22;26535;48.788;9.214;2023-03-26T22:03:41;6.90;99.90
40816;DHT22;26535;48.788;9.214;2023-03-26T22:06:35;6.90;99.90
40816;DHT22;26535;48.788;9.214;2023-03-26T22:09:04;6.90;99.90
40816;DHT22;26535;48.788;9.214;2023-03-26T22:11:30;6.80;99.90
40816;DHT22;26535;48.788;9.214;2023-03-26T22:13:56;6.90;99.90
40816;DHT22;26535;48.788;9.214;2023-03-26T22:16:22;6.90;99.90
40816;DHT22;26535;48.788;9.214;2023-03-26T22:18:50;6.90;99.90
40816;DHT22;26535;48.788;9.214;2023-03-26T22:21:17;6.90;99.90
40816;DHT22;26535;48.788;9.214;2023-03-26T22:23:43;6.90;99.90
40816;DHT22;26535;48.788;9.214;2023-03-26T22:26:14;6.90;99.90
40816;DHT22;26535;48.788;9.214;2023-03-26T22:28:40;6.90;99.90
40816;DHT22;26535;48.788;9.214;2023-03-26T22:31:06;6.90;99.90
40816;DHT22;26535;48.788;9.214;2023-03-26T22:33:33;6.90;99.90
40816;DHT22;26535;48.788;9.214;2023-03-26T22:36:00;6.90;99.90
40816;DHT22;26535;48.788;9.214;2023-03-26T22:38:26;6.90;99.90
40816;DHT22;26535;48.788;9.214;2023-03-26T22:40:55;7.00;99.90
40816;DHT22;26535;48.788;9.214;2023-03-26T22:43:21;7.00;99.90
40816;DHT22;26535;48.788;9.214;2023-03-26T22:45:50;6.90;99.90
40816;DHT22;26535;48.788;9.214;2023-03-26T22:48:18;6.90;99.90
40816;DHT22;26535;48.788;9.214;2023-03-26T22:50:44;6.90;99.90
40816;DHT22;26535;48.788;9.214;2023-03-26T22:53:09;6.90;99.90
40816;DHT22;26535;48.788;9.214;2023-03-26T22:55:36;6.90;99.90
40816;DHT22;26535;48.788;9.214;2023-03-26T22:58:01;7.00;99.90
40816;DHT22;26535;48.788;9.214;2023-03-26T23:00:27;7.00;99.90
40816;DHT22;26535;48.788;9.214;2023-03-26T23:02:53;6.90;99.90
40816;DHT22;26535;48.788;9.214;2023-03-26T23:05:24;6.90;99.90
40816;DHT22;26535;48.788;9.214;2023-03-26T23:07:50;7.00;99.90
40816;DHT22;26535;48.788;9.214;2023-03-26T23:10:16;7.00;99.90
40816;DHT22;26535;48.788;9.214;2023-03-26T23:12:42;7.00;99.90
40816;DHT22;26535;48.788;9.214;2023-03-26T23:15:09;6.90;99.90
40816;DHT22;26535;48.788;9.214;2023-03-26T23:17:36;7.00;99.90
40816;DHT22;26535;48.788;9.214;2023-03-26T23:20:05;7.00;99.90
40816;DHT22;26535;48.788;9.214;2023-03-26T23:22:37;7.00;99.90
40816;DHT22;26535;48.788;9.214;2023-03-26T23:25:06;7.00;99.90
40816;DHT22;26535;48.788;9.214;2023-03-26T23:27:32;7.10;99.90
40816;DHT22;26535;48.788;9.214;2023-03-26T23:29:58;7.20;99.90
40816;DHT22;26535;48.788;9.214;2023-03-26T23:32:26;7.20;99.90
40816;DHT22;26535;48.788;9.214;2023-03-26T23:34:52;7.10;99.90
40816;DHT22;26535;48.788;9.214;2023-03-26T23:37:21;7.10;99.90
40816;DHT22;26535;48.788;9.214;2023-03-26T23:39:51;7.10;99.90
40816;DHT22;26535;48.788;9.214;2023-03-26T23:42:17;7.10;99.90
40816;DHT22;26535;48.788;9.214;2023-03-26T23:44:43;7.10;99.90
40816;DHT22;26535;48.788;9.214;2023-03-26T23:47:11;7.10;99.90
40816;DHT22;26535;48.788;9.214;2023-03-26T23:49:41;7.20;99.90
40816;DHT22;26535;48.788;9.214;2023-03-26T23:52:07;7.20;99.90
40816;DHT22;26535;48.788;9.214;2023-03-26T23:54:34;7.10;99.90
40816;DHT22;26535;48.788;9.214;2023-03-26T23:57:03;7.20;99.90
40816;DHT22;26535;48.788;9.214;2023-03-26T23:59:29;7.10;99.90
